Weather at Currituck County Regional Airport

Public forecast

Using degrees Fahrenheit for public forecast. Weather courtesy of forecast.io.

Current aviation weather report (METAR) for Currituck County Regional Airport

2024/06/21 23:35 (retrieved 6 minutes ago)

KONX 212335Z AUTO 14004KT 10SM CLR 27/21 A3016 RMK AO2 T02740211

Closest aviation forecast (TAF) to Currituck County Regional Airport

Closest forecast is Elizabeth City Regional Airport & Coast Guard Air Station, 11.3 nm (20.9 km) SW.

2024/06/21 18:24 (retrieved 5 hours ago)

TAF TAF KECG 211720Z 2118/2218 13008KT P6SM SCT045 FM220100 17006KT P6SM SKC FM220900 21004KT P6SM SCT025 FM221300 22007KT P6SM SKC